createdAt,value
2023-04-18T00:00:25.683Z,1022.62
2023-04-18T00:02:10.853Z,1022.68
2023-04-18T00:03:55.759Z,1022.56
2023-04-18T00:05:40.702Z,1022.71
2023-04-18T00:07:25.798Z,1022.67
2023-04-18T00:09:11.012Z,1022.63
2023-04-18T00:10:55.707Z,1022.54
2023-04-18T00:12:40.769Z,1022.59
2023-04-18T00:14:25.741Z,1022.64
2023-04-18T00:16:10.733Z,1022.55
2023-04-18T00:17:55.777Z,1022.64
2023-04-18T00:19:40.722Z,1022.55
2023-04-18T00:21:25.882Z,1022.6
2023-04-18T00:23:12.867Z,1022.53
2023-04-18T00:24:55.729Z,1022.59
2023-04-18T00:26:40.740Z,1022.58
2023-04-18T00:28:25.781Z,1022.51
2023-04-18T00:30:10.818Z,1022.5
2023-04-18T00:31:56.035Z,1022.56
2023-04-18T00:33:41.109Z,1022.51
2023-04-18T00:35:25.777Z,1022.63
2023-04-18T00:37:10.754Z,1022.55
2023-04-18T00:38:55.863Z,1022.7
2023-04-18T00:40:40.766Z,1022.57
2023-04-18T00:42:25.757Z,1022.53
2023-04-18T00:44:10.941Z,1022.52
2023-04-18T00:45:56.090Z,1022.46
2023-04-18T00:47:40.839Z,1022.54
2023-04-18T00:49:26.113Z,1022.46
2023-04-18T00:51:10.793Z,1022.39
2023-04-18T00:52:55.795Z,1022.46
2023-04-18T00:54:41.629Z,1022.39
2023-04-18T00:56:25.775Z,1022.38
2023-04-18T00:58:10.806Z,1022.45
2023-04-18T00:59:55.820Z,1022.44
2023-04-18T01:01:41.086Z,1022.4
2023-04-18T01:03:25.894Z,1022.35
2023-04-18T01:05:10.828Z,1022.37
2023-04-18T01:06:55.798Z,1022.41
2023-04-18T01:08:40.791Z,1022.31
2023-04-18T01:10:25.853Z,1022.43
2023-04-18T01:12:10.794Z,1022.37
2023-04-18T01:13:55.778Z,1022.39
2023-04-18T01:15:40.897Z,1022.33
2023-04-18T01:17:25.818Z,1022.47
2023-04-18T01:19:10.792Z,1022.42
2023-04-18T01:20:55.863Z,1022.39
2023-04-18T01:22:40.795Z,1022.27
2023-04-18T01:24:25.810Z,1022.27
2023-04-18T01:26:10.920Z,1022.32
2023-04-18T01:27:56.449Z,1022.2
2023-04-18T01:29:40.840Z,1022.32
2023-04-18T01:31:25.936Z,1022.35
2023-04-18T01:33:10.787Z,1022.33
2023-04-18T01:34:55.837Z,1022.35
2023-04-18T01:36:40.944Z,1022.29
2023-04-18T01:38:25.843Z,1022.17
2023-04-18T01:40:10.807Z,1022.29
2023-04-18T01:41:55.906Z,1022.2
2023-04-18T01:43:40.842Z,1022.14
2023-04-18T01:45:25.843Z,1022.14
2023-04-18T01:47:10.897Z,1022.19
2023-04-18T01:48:55.836Z,1022.17
2023-04-18T01:50:40.841Z,1022.11
2023-04-18T01:52:25.964Z,1022.1
2023-04-18T01:54:10.905Z,1022.05
2023-04-18T01:55:55.853Z,1022.11
2023-04-18T01:57:41.247Z,1022.14
2023-04-18T01:59:25.858Z,1022.04
2023-04-18T02:01:10.837Z,1022.08
2023-04-18T02:02:56.152Z,1022.12
2023-04-18T02:04:40.868Z,1022.16
2023-04-18T02:06:25.868Z,1022.08
2023-04-18T02:08:10.937Z,1022.08
2023-04-18T02:09:55.849Z,1022.05
2023-04-18T02:11:40.864Z,1022.04
2023-04-18T02:13:25.951Z,1022.02
2023-04-18T02:15:10.865Z,1022.01
2023-04-18T02:16:55.940Z,1022.07
2023-04-18T02:18:40.893Z,1022
2023-04-18T02:20:25.903Z,1021.91
2023-04-18T02:22:10.876Z,1021.93
2023-04-18T02:23:55.948Z,1021.9
2023-04-18T02:25:40.876Z,1022.06
2023-04-18T02:27:25.866Z,1021.94
2023-04-18T02:29:10.955Z,1021.92
2023-04-18T02:30:55.885Z,1022.01
2023-04-18T02:32:40.909Z,1021.97
2023-04-18T02:34:25.979Z,1021.91
2023-04-18T02:36:10.881Z,1021.86
2023-04-18T02:37:55.883Z,1022
2023-04-18T02:39:40.978Z,1021.96
2023-04-18T02:41:25.881Z,1021.94
2023-04-18T02:43:10.884Z,1021.98
2023-04-18T02:44:56.004Z,1022.01
2023-04-18T02:46:40.901Z,1022.02
2023-04-18T02:48:25.946Z,1022.06
2023-04-18T02:50:10.941Z,1021.99
2023-04-18T02:51:55.923Z,1021.92
2023-04-18T02:53:40.923Z,1022.03
2023-04-18T02:55:25.971Z,1021.99
2023-04-18T02:57:11.557Z,1022.06
2023-04-18T02:58:55.897Z,1021.89
2023-04-18T03:00:41.030Z,1021.95
2023-04-18T03:02:26.248Z,1021.94
2023-04-18T03:04:10.955Z,1021.87
2023-04-18T03:05:55.996Z,1021.91
2023-04-18T03:07:40.940Z,1021.86
2023-04-18T03:09:25.929Z,1022.02
2023-04-18T03:11:11.266Z,1021.91
2023-04-18T03:12:56.246Z,1022.06
2023-04-18T03:14:40.948Z,1021.95
2023-04-18T03:16:26.010Z,1022.01
2023-04-18T03:18:10.980Z,1022.05
2023-04-18T03:19:55.939Z,1022.03
2023-04-18T03:21:41.020Z,1021.98
2023-04-18T03:23:25.965Z,1022.02
2023-04-18T03:25:10.952Z,1021.98
2023-04-18T03:26:55.973Z,1021.92
2023-04-18T03:28:40.947Z,1022.06
2023-04-18T03:30:25.937Z,1022.1
2023-04-18T03:32:11.027Z,1022.02
2023-04-18T03:33:55.968Z,1022.13
2023-04-18T03:35:40.970Z,1022.05
2023-04-18T03:37:26.016Z,1022.01
2023-04-18T03:39:11.263Z,1022.01
2023-04-18T03:40:55.985Z,1022.06
2023-04-18T03:42:41.016Z,1022.06
2023-04-18T03:44:25.985Z,1022.16
2023-04-18T03:46:11.034Z,1021.96
2023-04-18T03:47:56.020Z,1022.19
2023-04-18T03:49:41.052Z,1022.07
2023-04-18T03:51:25.970Z,1022.18
2023-04-18T03:53:10.996Z,1022.18
2023-04-18T03:54:56.020Z,1022.19
2023-04-18T03:56:41.018Z,1022.13
2023-04-18T03:58:26.003Z,1022.07
2023-04-18T04:00:11.066Z,1022.16
2023-04-18T04:01:56.123Z,1022.14
2023-04-18T04:03:41.219Z,1022.14
2023-04-18T04:05:26.106Z,1022.11
2023-04-18T04:07:11.051Z,1022.14
2023-04-18T04:08:56.059Z,1022.15
2023-04-18T04:10:41.086Z,1022.24
2023-04-18T04:12:26.056Z,1022.24
2023-04-18T04:14:11.119Z,1022.31
2023-04-18T04:15:56.135Z,1022.11
2023-04-18T04:17:41.080Z,1022.18
2023-04-18T04:19:26.084Z,1022.21
2023-04-18T04:21:11.114Z,1022.16
2023-04-18T04:22:56.100Z,1022.24
2023-04-18T04:24:41.078Z,1022.25
2023-04-18T04:26:26.073Z,1022.34
2023-04-18T04:28:11.091Z,1022.32
2023-04-18T04:29:56.057Z,1022.24
2023-04-18T04:31:41.149Z,1022.24
2023-04-18T04:33:26.098Z,1022.29
2023-04-18T04:35:11.102Z,1022.39
2023-04-18T04:36:56.115Z,1022.24
2023-04-18T04:38:41.088Z,1022.32
2023-04-18T04:40:26.051Z,1022.3
2023-04-18T04:42:11.147Z,1022.37
2023-04-18T04:43:56.085Z,1022.29
2023-04-18T04:45:41.196Z,1022.34
2023-04-18T04:47:26.187Z,1022.32
2023-04-18T04:49:11.116Z,1022.32
2023-04-18T04:50:56.125Z,1022.47
2023-04-18T04:52:41.142Z,1022.37
2023-04-18T04:54:26.125Z,1022.41
2023-04-18T04:56:11.121Z,1022.39
2023-04-18T04:57:56.122Z,1022.45
2023-04-18T04:59:41.107Z,1022.34
2023-04-18T05:01:26.130Z,1022.43
2023-04-18T05:03:11.338Z,1022.44
2023-04-18T05:04:56.088Z,1022.53
2023-04-18T05:06:41.129Z,1022.43
2023-04-18T05:08:26.170Z,1022.48
2023-04-18T05:10:11.159Z,1022.46
2023-04-18T05:11:56.103Z,1022.5
2023-04-18T05:13:41.160Z,1022.48
2023-04-18T05:15:26.099Z,1022.5
2023-04-18T05:17:11.126Z,1022.51
2023-04-18T05:18:56.468Z,1022.48
2023-04-18T05:20:41.121Z,1022.57
2023-04-18T05:22:26.196Z,1022.57
2023-04-18T05:24:11.226Z,1022.62
2023-04-18T05:25:56.167Z,1022.63
2023-04-18T05:27:41.119Z,1022.64
2023-04-18T05:29:26.182Z,1022.66
2023-04-18T05:31:11.189Z,1022.66
2023-04-18T05:32:56.148Z,1022.64
2023-04-18T05:34:41.160Z,1022.72
2023-04-18T05:36:26.157Z,1022.75
2023-04-18T05:38:11.480Z,1022.6
2023-04-18T05:39:56.827Z,1022.77
2023-04-18T05:41:41.162Z,1022.6
2023-04-18T05:43:26.167Z,1022.73
2023-04-18T05:45:11.222Z,1022.77
2023-04-18T05:46:56.453Z,1022.82
2023-04-18T05:48:41.184Z,1022.86
2023-04-18T05:50:26.231Z,1022.83
2023-04-18T05:52:11.177Z,1022.8
2023-04-18T05:53:56.202Z,1022.91
2023-04-18T05:55:41.284Z,1022.92
2023-04-18T05:57:26.196Z,1022.88
2023-04-18T05:59:11.198Z,1022.87
2023-04-18T06:00:56.244Z,1022.87
2023-04-18T06:02:41.718Z,1022.83
2023-04-18T06:04:26.271Z,1022.92
2023-04-18T06:06:11.243Z,1022.96
2023-04-18T06:07:56.212Z,1022.87
2023-04-18T06:09:41.264Z,1022.97
2023-04-18T06:11:26.244Z,1022.97
2023-04-18T06:13:11.217Z,1023.02
2023-04-18T06:14:56.228Z,1023.02
2023-04-18T06:16:41.282Z,1023.04
2023-04-18T06:18:26.237Z,1022.99
2023-04-18T06:20:11.318Z,1023.12
2023-04-18T06:21:56.585Z,1023.08
2023-04-18T06:23:41.235Z,1023.1
2023-04-18T06:25:26.332Z,1023.06
2023-04-18T06:27:20.664Z,1023.1
2023-04-18T06:28:56.247Z,1023.07
2023-04-18T06:30:41.221Z,1023.16
2023-04-18T06:32:26.338Z,1022.94
2023-04-18T06:34:11.284Z,1023.12
2023-04-18T06:35:56.253Z,1023.16
2023-04-18T06:37:41.320Z,1023.06
2023-04-18T06:39:26.258Z,1023
2023-04-18T06:41:11.269Z,1023.19
2023-04-18T06:42:56.277Z,1023.07
2023-04-18T06:44:41.252Z,1023.16
2023-04-18T06:46:26.326Z,1023.06
2023-04-18T06:48:11.294Z,1023.15
2023-04-18T06:49:56.270Z,1023.19
2023-04-18T06:51:41.257Z,1023.12
2023-04-18T06:53:26.279Z,1023.14
2023-04-18T06:55:11.264Z,1023.18
2023-04-18T06:56:56.373Z,1023.16
2023-04-18T06:58:41.330Z,1023.22
2023-04-18T07:00:26.287Z,1023.17
2023-04-18T07:02:11.288Z,1023.21
2023-04-18T07:03:56.504Z,1023.27
2023-04-18T07:05:41.291Z,1023.21
2023-04-18T07:07:26.287Z,1023.24
2023-04-18T07:09:11.343Z,1023.21
2023-04-18T07:10:56.287Z,1023.18
2023-04-18T07:12:41.352Z,1023.21
2023-04-18T07:14:26.609Z,1023.32
2023-04-18T07:16:11.285Z,1023.26
2023-04-18T07:17:56.334Z,1023.31
2023-04-18T07:19:41.382Z,1023.38
2023-04-18T07:21:26.333Z,1023.41
2023-04-18T07:23:11.338Z,1023.34
2023-04-18T07:24:56.380Z,1023.43
2023-04-18T07:26:41.332Z,1023.45
2023-04-18T07:28:26.737Z,1023.45
2023-04-18T07:30:11.355Z,1023.48
2023-04-18T07:31:56.342Z,1023.49
2023-04-18T07:33:41.318Z,1023.51
2023-04-18T07:35:26.399Z,1023.59
2023-04-18T07:37:12.565Z,1023.53
2023-04-18T07:38:56.342Z,1023.66
2023-04-18T07:40:41.404Z,1023.65
2023-04-18T07:42:26.409Z,1023.66
2023-04-18T07:44:11.565Z,1023.57
2023-04-18T07:45:56.391Z,1023.65
2023-04-18T07:47:41.370Z,1023.63
2023-04-18T07:49:26.364Z,1023.58
2023-04-18T07:51:11.369Z,1023.69
2023-04-18T07:52:56.349Z,1023.62
2023-04-18T07:54:41.352Z,1023.71
2023-04-18T07:56:26.415Z,1023.71
2023-04-18T07:58:11.364Z,1023.68
2023-04-18T07:59:56.383Z,1023.76
2023-04-18T08:01:41.397Z,1023.74
2023-04-18T08:03:26.602Z,1023.65
2023-04-18T08:05:11.422Z,1023.68
2023-04-18T08:06:56.411Z,1023.72
2023-04-18T08:08:41.376Z,1023.7
2023-04-18T08:10:26.377Z,1023.75
2023-04-18T08:12:11.392Z,1023.76
2023-04-18T08:13:56.409Z,1023.84
2023-04-18T08:15:41.732Z,1023.87
2023-04-18T08:17:26.452Z,1023.77
2023-04-18T08:19:11.481Z,1023.87
2023-04-18T08:20:56.376Z,1023.82
2023-04-18T08:22:50.410Z,1024
2023-04-18T08:24:26.448Z,1023.91
2023-04-18T08:26:11.394Z,1024
2023-04-18T08:27:56.443Z,1024
2023-04-18T08:29:41.423Z,1024
2023-04-18T08:31:26.716Z,1023.92
2023-04-18T08:33:11.458Z,1023.94
2023-04-18T08:34:56.401Z,1023.87
2023-04-18T08:36:41.417Z,1024
2023-04-18T08:38:26.775Z,1023.89
2023-04-18T08:40:11.430Z,1023.99
2023-04-18T08:41:56.462Z,1023.91
2023-04-18T08:43:41.497Z,1023.89
2023-04-18T08:45:26.519Z,1023.97
2023-04-18T08:47:11.445Z,1023.98
2023-04-18T08:48:56.803Z,1023.97
2023-04-18T08:50:41.440Z,1023.91
2023-04-18T08:52:26.427Z,1023.97
2023-04-18T08:54:11.445Z,1023.94
2023-04-18T08:55:56.723Z,1024
2023-04-18T08:57:41.435Z,1024
2023-04-18T08:59:26.748Z,1023.88
2023-04-18T09:01:11.483Z,1024
2023-04-18T09:02:57.039Z,1023.85
2023-04-18T09:04:41.521Z,1023.92
2023-04-18T09:06:27.705Z,1023.9
2023-04-18T09:08:11.451Z,1023.95
2023-04-18T09:09:56.489Z,1023.87
2023-04-18T09:11:41.445Z,1023.97
2023-04-18T09:13:26.455Z,1023.93
2023-04-18T09:15:11.452Z,1024.04
2023-04-18T09:16:56.469Z,1024.03
2023-04-18T09:18:41.530Z,1024.06
2023-04-18T09:20:26.491Z,1024.07
2023-04-18T09:22:11.466Z,1024
2023-04-18T09:23:56.492Z,1024.02
2023-04-18T09:25:43.554Z,1024.01
2023-04-18T09:27:26.478Z,1024.02
2023-04-18T09:29:11.626Z,1024
2023-04-18T09:30:56.542Z,1023.96
2023-04-18T09:32:41.489Z,1023.97
2023-04-18T09:34:26.552Z,1024.07
2023-04-18T09:36:11.506Z,1023.95
2023-04-18T09:37:56.503Z,1023.99
2023-04-18T09:39:42.116Z,1024.02
2023-04-18T09:41:26.520Z,1023.97
2023-04-18T09:43:11.504Z,1023.98
2023-04-18T09:44:56.908Z,1023.99
2023-04-18T09:46:41.530Z,1023.85
2023-04-18T09:48:26.492Z,1023.95
2023-04-18T09:50:11.660Z,1023.95
2023-04-18T09:51:56.569Z,1023.94
2023-04-18T09:53:41.510Z,1023.85
2023-04-18T09:55:26.844Z,1023.87
2023-04-18T09:57:11.547Z,1023.92
2023-04-18T09:58:56.489Z,1023.92
2023-04-18T10:00:41.500Z,1023.97
2023-04-18T10:02:26.592Z,1023.92
2023-04-18T10:04:11.606Z,1023.97
2023-04-18T10:05:57.740Z,1023.89
2023-04-18T10:07:41.565Z,1023.96
2023-04-18T10:09:26.504Z,1023.84
2023-04-18T10:11:11.534Z,1023.92
2023-04-18T10:12:56.592Z,1023.91
2023-04-18T10:14:41.529Z,1023.9
2023-04-18T10:16:26.608Z,1023.86
2023-04-18T10:18:11.594Z,1023.87
2023-04-18T10:19:56.519Z,1023.84
2023-04-18T10:21:41.606Z,1023.83
2023-04-18T10:23:28.085Z,1023.87
2023-04-18T10:25:11.526Z,1023.75
2023-04-18T10:26:56.531Z,1023.78
2023-04-18T10:28:41.901Z,1023.81
2023-04-18T10:30:26.538Z,1023.82
2023-04-18T10:32:11.571Z,1023.75
2023-04-18T10:34:04.438Z,1023.71
2023-04-18T10:35:41.559Z,1023.68
2023-04-18T10:37:26.589Z,1023.73
2023-04-18T10:39:11.626Z,1023.7
2023-04-18T10:40:56.580Z,1023.74
2023-04-18T10:42:41.536Z,1023.71
2023-04-18T10:44:26.603Z,1023.7
2023-04-18T10:46:20.376Z,1023.69
2023-04-18T10:47:56.878Z,1023.72
2023-04-18T10:49:41.614Z,1023.64
2023-04-18T10:51:26.566Z,1023.69
2023-04-18T10:53:11.624Z,1023.7
2023-04-18T10:54:58.479Z,1023.75
2023-04-18T10:56:41.573Z,1023.74
2023-04-18T10:58:26.608Z,1023.71
2023-04-18T11:00:11.666Z,1023.75
2023-04-18T11:01:56.654Z,1023.74
2023-04-18T11:03:41.622Z,1023.77
2023-04-18T11:05:26.937Z,1023.76
2023-04-18T11:07:11.597Z,1023.72
2023-04-18T11:08:56.650Z,1023.68
2023-04-18T11:10:41.652Z,1023.72
2023-04-18T11:12:26.596Z,1023.7
2023-04-18T11:14:11.676Z,1023.67
2023-04-18T11:15:56.635Z,1023.69
2023-04-18T11:17:41.933Z,1023.61
2023-04-18T11:19:26.637Z,1023.61
2023-04-18T11:21:11.722Z,1023.62
2023-04-18T11:22:56.634Z,1023.64
2023-04-18T11:24:41.703Z,1023.67
2023-04-18T11:26:26.682Z,1023.69
2023-04-18T11:28:11.625Z,1023.57
2023-04-18T11:29:56.955Z,1023.52
2023-04-18T11:31:41.703Z,1023.48
2023-04-18T11:33:26.646Z,1023.51
2023-04-18T11:35:11.646Z,1023.45
2023-04-18T11:36:56.680Z,1023.54
2023-04-18T11:38:41.646Z,1023.52
2023-04-18T11:40:26.979Z,1023.62
2023-04-18T11:42:11.699Z,1023.49
2023-04-18T11:43:56.644Z,1023.45
2023-04-18T11:45:41.776Z,1023.47
2023-04-18T11:47:26.698Z,1023.47
2023-04-18T11:49:11.650Z,1023.43
2023-04-18T11:50:56.658Z,1023.49
2023-04-18T11:52:41.730Z,1023.5
2023-04-18T11:54:26.687Z,1023.45
2023-04-18T11:56:11.683Z,1023.49
2023-04-18T11:57:56.927Z,1023.37
2023-04-18T11:59:41.681Z,1023.43
2023-04-18T12:01:26.676Z,1023.42
2023-04-18T12:03:13.429Z,1023.52
2023-04-18T12:04:56.951Z,1023.51
2023-04-18T12:06:41.670Z,1023.48
2023-04-18T12:08:26.761Z,1023.41
2023-04-18T12:10:11.686Z,1023.46
2023-04-18T12:11:56.756Z,1023.45
2023-04-18T12:13:41.744Z,1023.53
2023-04-18T12:15:26.713Z,1023.55
2023-04-18T12:17:11.712Z,1023.47
2023-04-18T12:18:56.747Z,1023.43
2023-04-18T12:20:41.723Z,1023.45
2023-04-18T12:22:26.727Z,1023.43
2023-04-18T12:24:11.868Z,1023.45
2023-04-18T12:25:56.782Z,1023.47
2023-04-18T12:27:41.732Z,1023.45
2023-04-18T12:29:26.768Z,1023.43
2023-04-18T12:31:11.809Z,1023.41
2023-04-18T12:32:56.723Z,1023.35
2023-04-18T12:34:41.738Z,1023.42
2023-04-18T12:36:26.744Z,1023.32
2023-04-18T12:38:11.734Z,1023.41
2023-04-18T12:39:56.751Z,1023.43
2023-04-18T12:41:41.739Z,1023.4
2023-04-18T12:43:26.794Z,1023.31
2023-04-18T12:45:12.072Z,1023.27
2023-04-18T12:46:56.808Z,1023.31
2023-04-18T12:48:41.718Z,1023.36
2023-04-18T12:50:26.733Z,1023.28
2023-04-18T12:52:11.722Z,1023.32
2023-04-18T12:53:56.706Z,1023.26
2023-04-18T12:55:41.798Z,1023.27
2023-04-18T12:57:26.720Z,1023.28
2023-04-18T12:59:12.302Z,1023.32
2023-04-18T13:00:56.828Z,1023.24
2023-04-18T13:02:41.800Z,1023.26
2023-04-18T13:04:26.838Z,1023.22
2023-04-18T13:06:11.760Z,1023.27
2023-04-18T13:08:05.055Z,1023.32
2023-04-18T13:09:41.768Z,1023.27
2023-04-18T13:11:26.786Z,1023.26
2023-04-18T13:13:11.752Z,1023.26
2023-04-18T13:14:56.804Z,1023.29
2023-04-18T13:16:43.752Z,1023.36
2023-04-18T13:18:26.777Z,1023.2
2023-04-18T13:20:11.768Z,1023.32
2023-04-18T13:21:56.797Z,1023.28
2023-04-18T13:23:41.769Z,1023.18
2023-04-18T13:25:26.766Z,1023.18
2023-04-18T13:27:11.817Z,1023.18
2023-04-18T13:28:56.774Z,1023.19
2023-04-18T13:30:41.838Z,1023.19
2023-04-18T13:32:26.834Z,1023.2
2023-04-18T13:34:11.767Z,1023.17
2023-04-18T13:35:56.835Z,1023.11
2023-04-18T13:37:41.809Z,1023.17
2023-04-18T13:39:26.793Z,1023.28
2023-04-18T13:41:13.112Z,1023.19
2023-04-18T13:42:56.859Z,1023.13
2023-04-18T13:44:41.810Z,1023.24
2023-04-18T13:46:26.860Z,1023.19
2023-04-18T13:48:12.533Z,1023.15
2023-04-18T13:49:56.809Z,1023.13
2023-04-18T13:51:42.472Z,1022.96
2023-04-18T13:53:27.568Z,1023.21
2023-04-18T13:55:11.831Z,1023.06
2023-04-18T13:56:56.812Z,1023.16
2023-04-18T13:58:41.870Z,1023.16
2023-04-18T14:00:26.813Z,1023.16
2023-04-18T14:02:12.045Z,1023.22
2023-04-18T14:03:57.361Z,1023.18
2023-04-18T14:05:41.849Z,1023.08
2023-04-18T14:07:26.845Z,1023
2023-04-18T14:09:12.017Z,1023.05
2023-04-18T14:10:56.822Z,1023.13
2023-04-18T14:12:41.836Z,1023.03
2023-04-18T14:14:26.933Z,1023.01
2023-04-18T14:16:11.871Z,1023.01
2023-04-18T14:17:57.324Z,1023.09
2023-04-18T14:19:41.958Z,1023.01
2023-04-18T14:21:26.866Z,1023.06
2023-04-18T14:23:11.861Z,1023.04
2023-04-18T14:24:56.927Z,1023.06
2023-04-18T14:26:41.850Z,1023.02
2023-04-18T14:28:26.883Z,1022.97
2023-04-18T14:30:11.911Z,1022.94
2023-04-18T14:31:56.893Z,1022.94
2023-04-18T14:33:41.876Z,1022.87
2023-04-18T14:35:26.967Z,1022.96
2023-04-18T14:37:11.873Z,1023.03
2023-04-18T14:38:56.865Z,1023.01
2023-04-18T14:40:41.923Z,1023.02
2023-04-18T14:42:26.908Z,1022.95
2023-04-18T14:44:11.881Z,1023.01
2023-04-18T14:45:58.973Z,1023.12
2023-04-18T14:47:42.285Z,1023.04
2023-04-18T14:49:26.929Z,1022.96
2023-04-18T14:51:11.958Z,1022.96
2023-04-18T14:52:56.925Z,1022.99
2023-04-18T14:54:41.882Z,1022.94
2023-04-18T14:56:26.920Z,1022.87
2023-04-18T14:58:12.185Z,1023.02
2023-04-18T14:59:56.896Z,1022.86
2023-04-18T15:01:41.995Z,1023.02
2023-04-18T15:03:26.974Z,1022.95
2023-04-18T15:05:11.919Z,1023.05
2023-04-18T15:06:56.989Z,1022.89
2023-04-18T15:08:41.880Z,1022.89
2023-04-18T15:10:26.902Z,1022.9
2023-04-18T15:12:11.958Z,1022.86
2023-04-18T15:13:56.899Z,1022.77
2023-04-18T15:15:41.907Z,1022.8
2023-04-18T15:17:27.317Z,1022.87
2023-04-18T15:19:11.942Z,1022.93
2023-04-18T15:20:56.961Z,1022.84
2023-04-18T15:22:41.960Z,1022.99
2023-04-18T15:24:26.917Z,1022.91
2023-04-18T15:26:11.914Z,1022.85
2023-04-18T15:27:56.998Z,1022.88
2023-04-18T15:29:41.932Z,1022.8
2023-04-18T15:31:26.958Z,1022.8
2023-04-18T15:33:11.979Z,1022.81
2023-04-18T15:34:57.235Z,1022.79
2023-04-18T15:36:41.993Z,1022.77
2023-04-18T15:38:26.972Z,1022.65
2023-04-18T15:40:11.944Z,1022.67
2023-04-18T15:41:56.963Z,1022.73
2023-04-18T15:43:42.032Z,1022.7
2023-04-18T15:45:26.966Z,1022.68
2023-04-18T15:47:11.941Z,1022.74
2023-04-18T15:48:57.001Z,1022.76
2023-04-18T15:50:41.979Z,1022.73
2023-04-18T15:52:27.050Z,1022.65
2023-04-18T15:54:12.220Z,1022.69
2023-04-18T15:55:56.959Z,1022.66
2023-04-18T15:57:42.010Z,1022.7
2023-04-18T15:59:27.032Z,1022.62
2023-04-18T16:01:12.133Z,1022.7
2023-04-18T16:02:57.180Z,1022.59
2023-04-18T16:04:42.084Z,1022.64
2023-04-18T16:06:26.994Z,1022.68
2023-04-18T16:08:12.041Z,1022.64
2023-04-18T16:09:57.034Z,1022.61
2023-04-18T16:11:41.984Z,1022.57
2023-04-18T16:13:27.022Z,1022.65
2023-04-18T16:15:12.126Z,1022.67
2023-04-18T16:16:59.689Z,1022.59
2023-04-18T16:18:42.063Z,1022.59
2023-04-18T16:20:27.049Z,1022.6
2023-04-18T16:22:12.018Z,1022.56
2023-04-18T16:23:57.085Z,1022.66
2023-04-18T16:25:42.121Z,1022.65
2023-04-18T16:27:27.062Z,1022.57
2023-04-18T16:29:12.041Z,1022.58
2023-04-18T16:30:57.134Z,1022.51
2023-04-18T16:32:42.398Z,1022.53
2023-04-18T16:34:27.042Z,1022.6
2023-04-18T16:36:12.093Z,1022.6
2023-04-18T16:37:57.078Z,1022.47
2023-04-18T16:39:42.087Z,1022.63
2023-04-18T16:41:27.077Z,1022.61
2023-04-18T16:43:12.075Z,1022.71
2023-04-18T16:44:57.051Z,1022.73
2023-04-18T16:46:42.137Z,1022.72
2023-04-18T16:48:27.119Z,1022.71
2023-04-18T16:50:12.086Z,1022.63
2023-04-18T16:51:57.118Z,1022.67
2023-04-18T16:53:42.071Z,1022.54
2023-04-18T16:55:27.095Z,1022.57
2023-04-18T16:57:12.139Z,1022.59
2023-04-18T16:58:57.081Z,1022.77
2023-04-18T17:00:42.098Z,1022.64
2023-04-18T17:02:27.291Z,1022.68
2023-04-18T17:04:12.194Z,1022.63
2023-04-18T17:05:57.122Z,1022.66
2023-04-18T17:07:42.136Z,1022.6
2023-04-18T17:09:27.097Z,1022.56
2023-04-18T17:11:12.128Z,1022.61
2023-04-18T17:12:57.142Z,1022.72
2023-04-18T17:14:42.128Z,1022.69
2023-04-18T17:16:27.152Z,1022.61
2023-04-18T17:18:12.229Z,1022.69
2023-04-18T17:19:57.159Z,1022.57
2023-04-18T17:21:42.107Z,1022.65
2023-04-18T17:23:27.164Z,1022.67
2023-04-18T17:25:12.137Z,1022.64
2023-04-18T17:26:57.166Z,1022.48
2023-04-18T17:28:42.136Z,1022.57
2023-04-18T17:30:27.116Z,1022.64
2023-04-18T17:32:12.438Z,1022.66
2023-04-18T17:33:57.188Z,1022.71
2023-04-18T17:35:42.148Z,1022.63
2023-04-18T17:37:27.142Z,1022.64
2023-04-18T17:39:12.378Z,1022.68
2023-04-18T17:40:57.163Z,1022.61
2023-04-18T17:42:42.180Z,1022.61
2023-04-18T17:44:27.202Z,1022.63
2023-04-18T17:46:12.207Z,1022.67
2023-04-18T17:47:57.174Z,1022.65
2023-04-18T17:49:42.175Z,1022.66
2023-04-18T17:51:27.470Z,1022.67
2023-04-18T17:53:12.444Z,1022.69
2023-04-18T17:54:57.208Z,1022.76
2023-04-18T17:56:42.189Z,1022.68
2023-04-18T17:58:27.242Z,1022.7
2023-04-18T18:00:12.182Z,1022.76
2023-04-18T18:01:57.592Z,1022.81
2023-04-18T18:03:42.333Z,1022.75
2023-04-18T18:05:27.234Z,1022.69
2023-04-18T18:07:12.144Z,1022.83
2023-04-18T18:08:57.177Z,1022.84
2023-04-18T18:10:42.217Z,1022.76
2023-04-18T18:12:27.173Z,1022.84
2023-04-18T18:14:12.211Z,1022.92
2023-04-18T18:17:42.210Z,1022.9
2023-04-18T18:19:27.196Z,1022.83
2023-04-18T18:21:12.216Z,1022.82
2023-04-18T18:22:57.191Z,1022.87
2023-04-18T18:24:42.167Z,1022.87
2023-04-18T18:26:27.230Z,1022.98
2023-04-18T18:28:12.180Z,1022.91
2023-04-18T18:29:57.223Z,1022.98
2023-04-18T18:31:42.331Z,1022.89
2023-04-18T18:33:27.242Z,1022.96
2023-04-18T18:35:12.206Z,1022.84
2023-04-18T18:36:57.215Z,1022.98
2023-04-18T18:38:42.195Z,1022.9
2023-04-18T18:40:27.200Z,1023.05
2023-04-18T18:42:12.257Z,1023.1
2023-04-18T18:43:57.212Z,1022.99
2023-04-18T18:45:42.244Z,1022.99
2023-04-18T18:47:27.246Z,1022.97
2023-04-18T18:49:12.305Z,1023.01
2023-04-18T18:50:57.258Z,1023.02
2023-04-18T18:52:42.283Z,1023.01
2023-04-18T18:54:27.222Z,1023.13
2023-04-18T18:56:12.233Z,1023.21
2023-04-18T18:57:57.266Z,1023.18
2023-04-18T18:59:42.247Z,1023.16
2023-04-18T19:01:27.288Z,1023.14
2023-04-18T19:03:12.405Z,1023.16
2023-04-18T19:04:57.573Z,1023.11
2023-04-18T19:06:42.241Z,1023.23
2023-04-18T19:08:27.933Z,1023.24
2023-04-18T19:10:12.280Z,1023.3
2023-04-18T19:11:57.245Z,1023.32
2023-04-18T19:13:42.265Z,1023.35
2023-04-18T19:15:27.252Z,1023.4
2023-04-18T19:17:12.298Z,1023.4
2023-04-18T19:18:57.316Z,1023.44
2023-04-18T19:20:42.250Z,1023.38
2023-04-18T19:22:27.277Z,1023.36
2023-04-18T19:24:12.258Z,1023.42
2023-04-18T19:25:57.257Z,1023.39
2023-04-18T19:27:42.263Z,1023.46
2023-04-18T19:29:27.322Z,1023.32
2023-04-18T19:31:12.310Z,1023.45
2023-04-18T19:32:57.998Z,1023.45
2023-04-18T19:34:42.333Z,1023.5
2023-04-18T19:36:27.270Z,1023.46
2023-04-18T19:38:12.269Z,1023.53
2023-04-18T19:39:57.358Z,1023.46
2023-04-18T19:41:42.267Z,1023.57
2023-04-18T19:43:27.266Z,1023.44
2023-04-18T19:45:12.328Z,1023.56
2023-04-18T19:46:57.272Z,1023.59
2023-04-18T19:48:42.699Z,1023.55
2023-04-18T19:50:27.691Z,1023.51
2023-04-18T19:52:12.332Z,1023.52
2023-04-18T19:53:57.285Z,1023.58
2023-04-18T19:55:42.376Z,1023.49
2023-04-18T19:57:27.285Z,1023.59
2023-04-18T19:59:12.342Z,1023.55
2023-04-18T20:00:57.362Z,1023.63
2023-04-18T20:02:42.410Z,1023.61
2023-04-18T20:04:27.382Z,1023.53
2023-04-18T20:06:12.359Z,1023.62
2023-04-18T20:07:57.289Z,1023.62
2023-04-18T20:09:42.601Z,1023.67
2023-04-18T20:11:27.326Z,1023.71
2023-04-18T20:13:12.311Z,1023.77
2023-04-18T20:14:57.309Z,1023.73
2023-04-18T20:16:42.373Z,1023.82
2023-04-18T20:18:27.307Z,1023.86
2023-04-18T20:20:12.328Z,1023.68
2023-04-18T20:21:57.335Z,1023.75
2023-04-18T20:23:42.307Z,1023.65
2023-04-18T20:25:27.298Z,1023.71
2023-04-18T20:27:12.362Z,1023.74
2023-04-18T20:28:57.305Z,1023.76
2023-04-18T20:30:42.324Z,1023.66
2023-04-18T20:32:27.390Z,1023.65
2023-04-18T20:34:12.312Z,1023.7
2023-04-18T20:35:57.360Z,1023.7
2023-04-18T20:37:42.379Z,1023.78
2023-04-18T20:39:27.320Z,1023.81
2023-04-18T20:41:12.364Z,1023.82
2023-04-18T20:42:57.404Z,1023.92
2023-04-18T20:44:42.327Z,1023.86
2023-04-18T20:46:27.384Z,1023.89
2023-04-18T20:48:12.391Z,1023.84
2023-04-18T20:49:57.338Z,1023.76
2023-04-18T20:51:42.374Z,1023.74
2023-04-18T20:53:27.379Z,1023.94
2023-04-18T20:55:12.386Z,1023.89
2023-04-18T20:56:57.664Z,1023.86
2023-04-18T20:58:42.387Z,1023.9
2023-04-18T21:00:27.412Z,1023.98
2023-04-18T21:02:12.435Z,1023.88
2023-04-18T21:03:57.440Z,1024.03
2023-04-18T21:05:42.377Z,1024
2023-04-18T21:07:27.694Z,1023.94
2023-04-18T21:09:12.510Z,1024.04
2023-04-18T21:10:57.391Z,1024
2023-04-18T21:12:42.361Z,1023.98
2023-04-18T21:14:27.406Z,1024.03
2023-04-18T21:16:12.397Z,1024.02